Time;durP1;ratioP1;P1;durP2;ratioP2;P2;SDS_P1;SDS_P2;PMS_P1;PMS_P2;Temp;Humidity;BMP_temperature;BMP_pressure;BME280_temperature;BME280_humidity;BME280_pressure;Samples;Min_cycle;Max_cycle;Signal;HPM_P1;HPM_P2
2021/07/30 00:01:36;;;;;;;9.38;3.53;;;;;;;19.03;59.64;100368.41;5081334;28;20084;-71
2021/07/30 00:04:04;;;;;;;9.25;2.90;;;;;;;19.04;59.36;100364.38;5078163;28;20044;-73
2021/07/30 00:06:31;;;;;;;5.65;3.72;;;;;;;19.04;59.57;100370.03;5086962;28;20475;-64
2021/07/30 00:08:58;;;;;;;10.15;4.00;;;;;;;18.91;59.51;100340.84;5081817;28;20098;-65
2021/07/30 00:11:25;;;;;;;9.10;3.42;;;;;;;19.03;59.68;100369.22;5087035;28;20127;-66
2021/07/30 00:13:52;;;;;;;10.65;3.95;;;;;;;18.90;59.65;100347.66;5083444;28;20094;-75
2021/07/30 00:16:19;;;;;;;11.50;5.10;;;;;;;18.92;59.63;100354.63;5085458;28;20048;-76
2021/07/30 00:18:46;;;;;;;13.23;4.20;;;;;;;18.96;59.72;100373.75;5087933;28;20089;-77
2021/07/30 00:21:13;;;;;;;15.85;6.22;;;;;;;18.91;59.78;100372.78;5085678;28;20080;-76
2021/07/30 00:23:40;;;;;;;15.48;5.43;;;;;;;18.88;59.86;100376.31;5089541;28;20067;-64
2021/07/30 00:26:07;;;;;;;16.52;7.65;;;;;;;18.86;59.71;100370.16;5088831;28;20135;-64
2021/07/30 00:28:33;;;;;;;16.58;6.88;;;;;;;18.85;59.56;100370.50;5090558;28;20068;-64
2021/07/30 00:31:00;;;;;;;9.95;4.40;;;;;;;18.76;60.03;100366.88;5087300;28;20128;-65
2021/07/30 00:33:28;;;;;;;12.65;4.85;;;;;;;18.88;59.91;100383.97;5083128;28;20404;-67
2021/07/30 00:35:55;;;;;;;10.30;4.28;;;;;;;18.88;60.02;100389.63;5086051;28;20123;-69
2021/07/30 00:38:22;;;;;;;9.82;4.40;;;;;;;18.86;60.07;100366.50;5082823;28;20114;-68
2021/07/30 00:40:49;;;;;;;10.50;5.30;;;;;;;18.93;59.85;100376.09;5087888;28;20040;-67
2021/07/30 00:43:17;;;;;;;11.35;5.15;;;;;;;18.93;60.02;100366.78;5087173;28;20056;-67
2021/07/30 00:45:44;;;;;;;6.60;3.50;;;;;;;18.90;59.75;100367.47;5079057;28;20076;-66
2021/07/30 00:48:13;;;;;;;7.68;4.30;;;;;;;18.80;60.08;100348.88;5092380;28;20491;-66
2021/07/30 00:50:42;;;;;;;11.87;4.23;;;;;;;18.89;60.08;100362.97;5082329;28;20083;-66
2021/07/30 00:53:10;;;;;;;10.48;3.55;;;;;;;18.89;59.99;100360.16;5089166;28;20840;-66
2021/07/30 00:55:37;;;;;;;7.15;4.53;;;;;;;18.72;59.74;100334.78;5085675;28;20127;-73
2021/07/30 00:58:03;;;;;;;9.35;4.47;;;;;;;18.84;60.09;100351.88;5093344;28;20123;-73
2021/07/30 01:00:30;;;;;;;12.32;3.90;;;;;;;18.91;59.82;100360.66;5095056;28;20147;-64
2021/07/30 01:03:00;;;;;;;7.60;4.30;;;;;;;18.90;59.94;100362.63;5087794;28;20044;-66
2021/07/30 01:05:29;;;;;;;16.77;4.53;;;;;;;18.89;59.82;100355.31;5089102;28;20048;-66
2021/07/30 01:08:01;;;;;;;8.63;4.82;;;;;;;18.87;60.25;100363.34;5089458;28;20087;-66
2021/07/30 01:10:29;;;;;;;9.98;4.30;;;;;;;18.87;60.20;100365.31;5088811;28;20130;-66
2021/07/30 01:12:56;;;;;;;15.45;4.03;;;;;;;18.87;60.13;100371.81;5091602;28;20127;-67
2021/07/30 01:15:23;;;;;;;12.85;4.15;;;;;;;18.89;60.26;100375.13;5079001;28;20159;-67
2021/07/30 01:17:50;;;;;;;10.15;4.22;;;;;;;18.80;60.05;100353.69;5085133;28;20126;-66
2021/07/30 01:20:24;;;;;;;9.70;5.20;;;;;;;18.91;60.27;100369.97;5091287;28;20095;-67
2021/07/30 01:22:56;;;;;;;12.30;4.93;;;;;;;18.91;60.12;100361.47;5083782;28;20040;-67
2021/07/30 01:25:24;;;;;;;10.90;3.90;;;;;;;18.89;60.44;100375.13;5085463;28;20079;-67
2021/07/30 01:27:52;;;;;;;12.85;4.13;;;;;;;18.87;60.23;100360.50;5088510;28;20381;-66
2021/07/30 01:30:21;;;;;;;12.85;4.75;;;;;;;18.79;60.25;100367.03;5083049;28;20072;-66
2021/07/30 01:32:48;;;;;;;9.53;4.10;;;;;;;18.82;60.35;100368.34;5088556;28;20082;-66
2021/07/30 01:35:15;;;;;;;6.55;4.07;;;;;;;18.81;60.36;100373.19;5079055;28;20131;-66
2021/07/30 01:37:42;;;;;;;9.60;4.07;;;;;;;18.77;60.50;100374.19;5087470;28;20463;-73
2021/07/30 01:40:09;;;;;;;10.40;4.72;;;;;;;18.72;60.71;100375.22;5084636;28;20048;-68
2021/07/30 01:42:37;;;;;;;9.00;4.38;;;;;;;18.70;60.63;100374.72;5087824;28;20143;-68
2021/07/30 01:45:05;;;;;;;9.35;3.75;;;;;;;18.64;60.73;100373.22;5087379;28;20048;-69
2021/07/30 01:47:34;;;;;;;10.65;3.88;;;;;;;18.63;60.64;100380.03;5089765;28;20064;-69
2021/07/30 01:50:02;;;;;;;11.63;3.75;;;;;;;18.56;60.80;100369.25;5090944;28;20090;-69
2021/07/30 01:52:29;;;;;;;7.03;3.50;;;;;;;18.59;60.96;100374.22;5081261;28;20561;-65
2021/07/30 01:54:57;;;;;;;10.13;4.25;;;;;;;18.46;61.14;100355.47;5085506;28;20446;-68
2021/07/30 01:57:23;;;;;;;9.43;4.20;;;;;;;18.31;61.21;100337.09;5098390;28;20040;-66
2021/07/30 01:59:50;;;;;;;11.55;4.50;;;;;;;18.54;61.06;100385.75;5079565;28;20076;-66
2021/07/30 02:02:17;;;;;;;11.13;4.97;;;;;;;18.53;61.08;100383.22;5084599;28;20060;-71
2021/07/30 02:04:44;;;;;;;12.23;4.20;;;;;;;18.51;61.18;100375.09;5088071;28;20495;-63
2021/07/30 02:07:11;;;;;;;9.27;4.38;;;;;;;18.51;61.08;100375.09;5088420;28;20044;-62
2021/07/30 02:09:38;;;;;;;10.38;3.80;;;;;;;18.49;61.62;100380.25;5088870;28;20063;-62
2021/07/30 02:12:05;;;;;;;10.00;4.10;;;;;;;18.49;61.19;100380.25;5083750;28;20076;-62
2021/07/30 02:14:32;;;;;;;12.15;4.18;;;;;;;18.46;61.33;100380.94;5086466;28;20044;-62
2021/07/30 02:16:59;;;;;;;8.52;4.13;;;;;;;18.46;61.77;100389.41;5085207;28;20044;-63
2021/07/30 02:19:26;;;;;;;17.10;4.00;;;;;;;18.45;61.77;100370.78;5087094;28;20035;-65
2021/07/30 02:21:55;;;;;;;8.82;4.30;;;;;;;18.37;61.56;100366.00;5086391;28;20052;-65
2021/07/30 02:24:24;;;;;;;7.63;4.07;;;;;;;18.43;61.90;100379.63;5087243;28;20070;-65
2021/07/30 02:26:52;;;;;;;7.25;3.38;;;;;;;18.32;61.43;100361.34;5085313;28;20350;-65
2021/07/30 02:29:19;;;;;;;10.27;3.45;;;;;;;18.42;61.73;100383.59;5086374;28;20047;-65
2021/07/30 02:31:48;;;;;;;11.63;3.38;;;;;;;18.34;61.69;100375.16;5085398;28;20062;-63
2021/07/30 02:34:15;;;;;;;14.75;4.20;;;;;;;18.40;61.76;100377.47;5086569;28;20511;-63
2021/07/30 02:36:43;;;;;;;13.98;4.20;;;;;;;18.34;61.94;100363.84;5088605;28;20071;-63
2021/07/30 02:39:09;;;;;;;9.70;3.53;;;;;;;18.37;62.03;100368.84;5077494;28;20079;-63
2021/07/30 02:41:36;;;;;;;7.63;3.70;;;;;;;18.43;62.20;100376.81;5089374;28;20442;-63
2021/07/30 02:44:04;;;;;;;6.97;3.38;;;;;;;18.39;62.19;100373.00;5084781;28;20072;-64
2021/07/30 02:46:30;;;;;;;8.73;4.07;;;;;;;18.31;62.19;100370.19;5085129;28;20131;-65
2021/07/30 02:48:57;;;;;;;7.53;3.58;;;;;;;18.38;62.25;100388.28;5088820;28;20058;-65
2021/07/30 02:51:25;;;;;;;15.25;3.33;;;;;;;18.29;62.23;100378.16;5082841;28;20048;-65
2021/07/30 02:53:52;;;;;;;11.07;4.18;;;;;;;18.13;62.60;100358.94;5081218;28;20123;-67
2021/07/30 02:56:19;;;;;;;10.15;3.92;;;;;;;18.41;62.59;100389.59;5087386;28;20064;-67
2021/07/30 02:58:46;;;;;;;10.00;3.80;;;;;;;18.41;62.72;100389.59;5084269;28;20131;-65
2021/07/30 03:01:12;;;;;;;13.13;4.53;;;;;;;18.53;62.76;100391.72;5085934;28;20119;-65
2021/07/30 03:03:40;;;;;;;12.40;5.32;;;;;;;18.60;62.53;100384.41;5089790;28;20044;-64
2021/07/30 03:06:07;;;;;;;11.82;5.00;;;;;;;18.55;62.50;100369.59;5087335;28;20130;-63
2021/07/30 03:08:33;;;;;;;17.25;5.22;;;;;;;18.66;62.21;100393.50;5085273;28;20452;-63
2021/07/30 03:11:00;;;;;;;16.70;5.35;;;;;;;18.51;62.39;100369.44;5088296;28;20087;-65
2021/07/30 03:13:27;;;;;;;11.20;5.72;;;;;;;18.54;62.31;100382.09;5085454;28;20543;-65
2021/07/30 03:15:55;;;;;;;10.73;5.25;;;;;;;18.43;62.04;100379.63;5083027;28;20071;-65
2021/07/30 03:18:23;;;;;;;20.05;5.80;;;;;;;18.44;62.02;100386.09;5089208;28;20044;-77
2021/07/30 03:20:49;;;;;;;13.80;4.80;;;;;;;18.50;62.31;100390.41;5085785;28;20123;-77
2021/07/30 03:23:16;;;;;;;12.07;5.13;;;;;;;18.41;62.07;100393.25;5086775;28;20075;-76
2021/07/30 03:25:43;;;;;;;18.67;6.55;;;;;;;18.43;62.29;100390.13;5083788;28;20075;-75
2021/07/30 03:28:10;;;;;;;10.45;4.80;;;;;;;18.54;62.18;100384.91;5084947;28;20135;-74
2021/07/30 03:30:37;;;;;;;7.88;4.75;;;;;;;18.44;62.36;100388.94;5087657;28;20132;-75
2021/07/30 03:33:04;;;;;;;12.15;6.03;;;;;;;18.12;62.75;100354.44;5087512;28;20128;-76
2021/07/30 03:35:32;;;;;;;13.48;6.07;;;;;;;18.12;63.01;100379.88;5087323;28;20086;-74
2021/07/30 03:37:58;;;;;;;14.80;5.10;;;;;;;18.16;62.79;100386.53;5084273;28;20095;-71
2021/07/30 03:40:25;;;;;;;20.25;5.55;;;;;;;18.10;63.10;100373.72;5084922;28;20444;-72
2021/07/30 03:42:52;;;;;;;10.15;5.10;;;;;;;18.26;63.12;100393.00;5086359;28;20488;-73
2021/07/30 03:45:20;;;;;;;11.65;4.82;;;;;;;18.38;62.90;100384.63;5085563;28;20123;-72
2021/07/30 03:47:47;;;;;;;7.18;4.75;;;;;;;18.04;62.90;100338.31;5090385;28;20127;-78
2021/07/30 03:50:14;;;;;;;10.32;4.72;;;;;;;18.21;62.71;100389.16;5088219;28;20095;-79
2021/07/30 03:52:41;;;;;;;9.07;4.93;;;;;;;18.03;63.31;100381.06;5091094;28;20044;-78
2021/07/30 03:55:09;;;;;;;12.07;4.90;;;;;;;17.96;63.24;100382.41;5082379;28;20447;-75
2021/07/30 03:57:35;;;;;;;12.95;6.00;;;;;;;17.93;63.80;100394.34;5086242;28;20047;-77
2021/07/30 04:00:04;;;;;;;10.52;4.82;;;;;;;17.87;64.00;100375.09;5090417;28;20515;-63
2021/07/30 04:02:31;;;;;;;14.27;5.28;;;;;;;17.80;64.12;100383.25;5088050;28;20048;-67
2021/07/30 04:04:58;;;;;;;13.93;4.43;;;;;;;17.66;64.65;100370.09;5081695;28;20051;-70
2021/07/30 04:07:25;;;;;;;13.20;5.03;;;;;;;17.76;64.42;100378.25;5096875;28;20127;-67
2021/07/30 04:09:54;;;;;;;12.48;5.15;;;;;;;17.74;64.64;100374.06;5090143;28;20093;-64
2021/07/30 04:12:22;;;;;;;14.00;5.55;;;;;;;17.89;64.91;100389.72;5078184;28;20154;-65
2021/07/30 04:14:49;;;;;;;12.38;4.35;;;;;;;17.73;65.25;100384.53;5085506;28;20131;-69
2021/07/30 04:17:16;;;;;;;13.85;5.22;;;;;;;17.73;64.74;100400.66;5088631;28;20127;-64
2021/07/30 04:19:43;;;;;;;12.70;5.65;;;;;;;17.67;64.94;100397.16;5081728;28;20543;-64
2021/07/30 04:22:11;;;;;;;10.90;4.95;;;;;;;17.47;65.15;100370.44;5093926;28;20069;-71
2021/07/30 04:24:40;;;;;;;17.00;5.53;;;;;;;17.52;65.54;100394.84;5085127;28;20140;-69
2021/07/30 04:27:07;;;;;;;9.35;4.97;;;;;;;17.37;66.23;100393.34;5091341;28;20067;-67
2021/07/30 04:29:38;;;;;;;10.82;4.97;;;;;;;17.30;66.42;100390.19;5089952;28;20747;-68
2021/07/30 04:32:10;;;;;;;8.52;4.82;;;;;;;17.19;66.56;100392.47;5087710;28;20068;-66
2021/07/30 04:34:38;;;;;;;10.77;5.10;;;;;;;17.19;66.72;100400.09;5085693;28;20040;-65
2021/07/30 04:37:06;;;;;;;11.73;5.05;;;;;;;17.13;66.74;100388.16;5090258;28;20075;-63
2021/07/30 04:39:35;;;;;;;15.07;5.47;;;;;;;17.18;66.39;100396.44;5091529;28;20079;-63
2021/07/30 04:42:02;;;;;;;8.90;3.97;;;;;;;17.06;66.28;100376.53;5076990;28;20054;-65
2021/07/30 04:44:32;;;;;;;16.52;5.03;;;;;;;17.20;66.86;100396.13;5089495;28;20123;-65
2021/07/30 04:47:00;;;;;;;12.70;5.18;;;;;;;17.18;67.13;100393.63;5085020;28;20090;-65
2021/07/30 04:49:26;;;;;;;8.15;4.22;;;;;;;17.15;66.95;100387.81;5089998;28;20130;-65
2021/07/30 04:52:02;;;;;;;10.70;4.70;;;;;;;17.05;66.89;100378.50;5092326;28;20071;-65
2021/07/30 04:54:29;;;;;;;10.18;4.65;;;;;;;17.22;67.21;100403.09;5089679;28;20093;-65
2021/07/30 04:56:56;;;;;;;12.32;5.20;;;;;;;17.26;66.97;100404.13;5090634;28;20135;-64
2021/07/30 04:59:23;;;;;;;20.00;5.93;;;;;;;17.24;67.12;100399.97;5084649;28;20154;-65
2021/07/30 05:01:50;;;;;;;10.25;5.18;;;;;;;17.20;67.43;100408.25;5085571;28;20068;-66
2021/07/30 05:04:19;;;;;;;12.45;5.38;;;;;;;17.11;67.24;100400.91;5086248;28;20048;-66
2021/07/30 05:06:46;;;;;;;14.02;6.03;;;;;;;17.19;67.10;100415.03;5078595;28;20072;-66
2021/07/30 05:09:13;;;;;;;11.45;5.88;;;;;;;17.23;67.22;100413.25;5079499;28;20044;-66
2021/07/30 05:11:40;;;;;;;14.13;5.05;;;;;;;17.27;67.17;100417.06;5097562;28;20105;-64
2021/07/30 05:14:07;;;;;;;13.77;5.60;;;;;;;17.30;66.99;100421.22;5081794;28;20090;-64
2021/07/30 05:16:34;;;;;;;16.65;5.63;;;;;;;17.28;67.23;100420.72;5084047;28;20040;-64
2021/07/30 05:19:01;;;;;;;10.13;5.53;;;;;;;17.14;67.45;100389.81;5085962;28;22114;-64
2021/07/30 05:21:28;;;;;;;10.88;5.28;;;;;;;17.44;66.80;100429.56;5089049;28;20132;-65
2021/07/30 05:23:57;;;;;;;14.35;6.40;;;;;;;17.55;66.57;100428.06;5084532;28;20079;-63
2021/07/30 05:26:24;;;;;;;15.18;6.00;;;;;;;17.48;66.31;100416.44;5091126;28;20123;-64
2021/07/30 05:28:51;;;;;;;9.85;7.50;;;;;;;17.41;66.88;100427.38;5087901;28;20072;-65
2021/07/30 05:31:19;;;;;;;15.07;6.10;;;;;;;17.46;66.77;100424.38;5089214;28;20123;-69
2021/07/30 05:33:46;;;;;;;12.40;6.30;;;;;;;17.39;67.30;100407.09;5083899;28;20048;-69
2021/07/30 05:36:17;;;;;;;16.20;6.43;;;;;;;17.80;66.58;100409.50;5085659;28;20101;-71
2021/07/30 05:38:45;;;;;;;9.95;5.95;;;;;;;17.93;66.42;100424.59;5085153;28;20124;-68
2021/07/30 05:41:13;;;;;;;14.52;7.05;;;;;;;17.90;66.22;100425.28;5088998;28;20084;-66
2021/07/30 05:43:41;;;;;;;10.43;6.03;;;;;;;17.87;66.49;100423.09;5086257;28;20080;-68
2021/07/30 05:46:09;;;;;;;14.68;7.22;;;;;;;17.77;66.32;100430.75;5080879;28;20040;-67
2021/07/30 05:48:36;;;;;;;16.33;6.78;;;;;;;17.68;66.13;100440.38;5085776;28;20131;-60
2021/07/30 05:51:03;;;;;;;15.50;7.25;;;;;;;17.50;66.37;100428.22;5084564;28;20539;-63
2021/07/30 05:53:30;;;;;;;10.98;7.68;;;;;;;17.36;66.98;100414.25;5076518;28;20491;-72
2021/07/30 05:55:56;;;;;;;13.20;7.03;;;;;;;17.65;66.61;100439.03;5083600;28;20491;-65
2021/07/30 05:58:25;;;;;;;12.20;6.50;;;;;;;17.63;66.48;100441.34;5084955;28;20395;-63
2021/07/30 06:00:52;;;;;;;19.02;6.97;;;;;;;17.71;66.54;100440.53;5089239;28;20127;-64
2021/07/30 06:03:19;;;;;;;18.00;6.53;;;;;;;17.88;65.99;100455.84;5086477;28;20135;-68
2021/07/30 06:05:49;;;;;;;15.98;7.53;;;;;;;17.90;66.10;100425.28;5083137;28;20036;-65
2021/07/30 06:08:16;;;;;;;15.45;6.38;;;;;;;17.66;65.92;100391.84;5081166;28;20153;-60
2021/07/30 06:10:43;;;;;;;20.88;7.18;;;;;;;17.87;65.64;100428.75;5071540;28;20046;-68
2021/07/30 06:13:09;;;;;;;13.10;6.15;;;;;;;17.98;65.89;100430.94;5082484;28;20080;-64
2021/07/30 06:15:36;;;;;;;11.82;6.28;;;;;;;17.99;65.67;100426.94;5085390;28;20119;-64
2021/07/30 06:18:06;;;;;;;10.88;6.72;;;;;;;18.33;65.03;100444.19;5084263;28;20052;-68
2021/07/30 06:20:33;;;;;;;11.80;6.38;;;;;;;18.56;64.95;100451.25;5078478;28;20127;-69
2021/07/30 06:22:59;;;;;;;22.23;7.22;;;;;;;18.75;64.40;100450.09;5088143;28;20154;-69
2021/07/30 06:25:26;;;;;;;12.93;6.43;;;;;;;18.89;64.00;100428.88;5086226;28;20123;-68
2021/07/30 06:27:53;;;;;;;16.27;6.53;;;;;;;19.15;63.72;100434.44;5082175;28;20040;-69
2021/07/30 06:30:20;;;;;;;12.48;5.65;;;;;;;19.43;63.16;100445.25;5082692;28;20277;-68
2021/07/30 06:32:47;;;;;;;17.17;6.68;;;;;;;19.61;63.10;100458.13;5089369;28;20128;-70
2021/07/30 06:35:15;;;;;;;10.30;6.60;;;;;;;19.73;62.43;100453.75;5078858;28;20036;-70
2021/07/30 06:37:42;;;;;;;16.58;6.82;;;;;;;19.81;62.39;100461.34;5077230;28;20044;-68
2021/07/30 06:40:10;;;;;;;19.48;6.97;;;;;;;19.97;61.79;100445.38;5083725;28;20048;-70
2021/07/30 06:42:37;;;;;;;14.40;6.10;;;;;;;20.18;61.40;100455.88;5077444;28;20084;-69
2021/07/30 06:45:06;;;;;;;12.13;6.55;;;;;;;20.36;61.09;100465.84;5077892;28;20048;-70
2021/07/30 06:47:34;;;;;;;16.83;5.85;;;;;;;20.52;60.89;100469.72;5081646;28;20131;-70
2021/07/30 06:50:02;;;;;;;12.70;5.45;;;;;;;20.57;60.54;100463.81;5078840;28;20040;-70
2021/07/30 06:52:30;;;;;;;8.27;5.22;;;;;;;20.61;59.92;100440.44;5083019;28;20083;-71
2021/07/30 06:54:58;;;;;;;12.00;6.43;;;;;;;20.78;59.81;100474.28;5089469;28;20040;-69
2021/07/30 06:57:25;;;;;;;13.57;5.82;;;;;;;20.89;59.53;100478.34;5075845;28;20068;-69
2021/07/30 06:59:51;;;;;;;13.40;5.93;;;;;;;20.85;58.98;100470.88;5077570;28;20132;-69
2021/07/30 07:02:18;;;;;;;13.52;7.05;;;;;;;21.04;58.86;100486.16;5092980;28;20139;-69
2021/07/30 07:04:45;;;;;;;13.10;6.05;;;;;;;21.20;58.52;100485.47;5079646;28;20055;-68
2021/07/30 07:07:12;;;;;;;18.35;6.30;;;;;;;21.40;58.32;100476.03;5075265;28;20048;-67
2021/07/30 07:09:39;;;;;;;9.88;5.38;;;;;;;21.53;57.93;100480.50;5079652;28;20539;-66
2021/07/30 07:12:06;;;;;;;8.98;5.28;;;;;;;21.67;57.47;100490.69;5072792;28;20109;-66
2021/07/30 07:14:33;;;;;;;14.68;7.03;;;;;;;21.63;57.34;100478.38;5081650;28;20080;-66
2021/07/30 07:17:00;;;;;;;11.30;6.03;;;;;;;21.94;56.91;100492.75;5081561;28;20052;-66
2021/07/30 07:19:28;;;;;;;13.60;5.43;;;;;;;22.06;56.71;100474.03;5081498;28;20083;-67
2021/07/30 07:21:58;;;;;;;7.80;5.13;;;;;;;22.55;56.27;100493.75;5085251;28;20040;-63
2021/07/30 07:24:25;;;;;;;9.57;5.32;;;;;;;22.77;55.29;100489.47;5092164;28;20119;-62
2021/07/30 07:26:52;;;;;;;12.05;5.72;;;;;;;22.90;55.26;100485.38;5086558;28;20042;-62
2021/07/30 07:29:19;;;;;;;12.38;5.78;;;;;;;23.14;54.73;100488.06;5103795;28;20070;-63
2021/07/30 07:31:46;;;;;;;17.42;6.20;;;;;;;23.34;54.67;100493.88;5086145;28;20123;-63
2021/07/30 07:34:13;;;;;;;7.63;4.55;;;;;;;23.41;53.94;100494.88;5091527;28;20056;-64
2021/07/30 07:36:40;;;;;;;13.27;5.60;;;;;;;23.57;53.95;100506.25;5089622;28;20147;-62
2021/07/30 07:39:07;;;;;;;9.43;5.22;;;;;;;23.93;53.30;100489.19;5080185;28;20086;-63
2021/07/30 07:41:35;;;;;;;9.27;5.28;;;;;;;24.34;52.33;100505.59;5086292;28;20082;-63
2021/07/30 07:44:02;;;;;;;9.80;5.70;;;;;;;24.16;52.25;100441.59;5092309;28;20276;-63
2021/07/30 07:46:29;;;;;;;10.82;5.00;;;;;;;24.75;51.79;100499.50;5090027;28;20072;-62
2021/07/30 07:48:56;;;;;;;11.00;5.43;;;;;;;25.04;50.87;100503.72;5079352;28;20040;-62
2021/07/30 07:51:23;;;;;;;15.27;5.13;;;;;;;25.24;50.57;100502.50;5077834;28;20514;-62
2021/07/30 07:53:50;;;;;;;15.63;5.85;;;;;;;25.44;50.02;100508.13;5083288;28;20087;-63
2021/07/30 07:56:17;;;;;;;13.02;6.47;;;;;;;25.34;49.16;100509.59;5089695;28;20080;-62
2021/07/30 07:58:43;;;;;;;12.95;5.60;;;;;;;25.41;49.77;100514.63;5086480;28;20206;-62
2021/07/30 08:01:14;;;;;;;11.93;5.57;;;;;;;25.82;48.40;100503.47;5092182;28;20179;-62
2021/07/30 08:03:44;;;;;;;11.73;5.47;;;;;;;25.92;48.03;100491.34;5093061;28;20097;-62
2021/07/30 08:06:16;;;;;;;9.10;6.00;;;;;;;26.13;47.39;100499.41;5087407;28;20055;-63
2021/07/30 08:08:43;;;;;;;10.23;5.60;;;;;;;26.36;47.16;100507.88;5084583;28;20079;-62
2021/07/30 08:11:12;;;;;;;;;;;;;;;26.42;49.11;100498.53;5085014;28;20123;-63
2021/07/30 08:13:40;;;;;;;11.75;4.50;;;;;;;26.68;47.18;100503.41;5085580;28;19927;-63
2021/07/30 08:16:08;;;;;;;7.53;3.70;;;;;;;27.07;46.14;100497.25;5079973;28;20575;-63
2021/07/30 08:18:35;;;;;;;9.88;4.35;;;;;;;27.46;45.22;100493.97;5080331;28;20044;-63
2021/07/30 08:21:02;;;;;;;9.60;3.33;;;;;;;27.32;45.06;100490.97;5084619;28;20131;-62
2021/07/30 08:23:30;;;;;;;9.15;3.47;;;;;;;27.57;44.24;100494.03;5090665;28;20592;-62
2021/07/30 08:25:56;;;;;;;7.38;4.32;;;;;;;27.72;43.90;100504.38;5092023;28;20134;-62
2021/07/30 08:28:25;;;;;;;16.02;3.38;;;;;;;27.81;43.56;100495.47;5085802;28;20193;-63
2021/07/30 08:30:52;;;;;;;10.73;3.58;;;;;;;28.08;42.99;100494.00;5084719;28;20076;-62
2021/07/30 08:33:18;;;;;;;8.07;3.22;;;;;;;28.31;42.39;100501.50;5089337;28;20036;-63
2021/07/30 08:35:45;;;;;;;7.00;3.17;;;;;;;28.56;42.11;100499.56;5093336;28;20086;-63
2021/07/30 08:38:12;;;;;;;6.10;3.10;;;;;;;28.44;42.12;100490.50;5081705;28;20508;-63
2021/07/30 08:40:40;;;;;;;6.97;3.05;;;;;;;28.40;42.44;100498.28;5088354;28;20113;-63
2021/07/30 08:43:12;;;;;;;5.80;2.70;;;;;;;28.65;41.65;100481.13;5073917;28;20059;-62
2021/07/30 08:45:39;;;;;;;10.02;3.38;;;;;;;29.08;41.18;100504.25;5083556;28;20068;-63
2021/07/30 08:48:06;;;;;;;6.65;2.65;;;;;;;29.20;40.93;100501.81;5086038;28;20047;-62
2021/07/30 08:50:35;;;;;;;9.85;3.30;;;;;;;29.02;40.95;100501.75;5092468;28;20132;-62
2021/07/30 08:53:05;;;;;;;7.13;3.65;;;;;;;28.96;41.33;100497.63;5084329;28;20197;-62
2021/07/30 08:55:32;;;;;;;6.90;3.65;;;;;;;28.96;41.54;100496.81;5084685;28;20083;-63
2021/07/30 08:57:59;;;;;;;9.15;3.83;;;;;;;29.04;41.12;100499.31;5085284;28;20106;-62
2021/07/30 09:00:26;;;;;;;7.20;2.95;;;;;;;29.14;41.15;100496.88;5085499;28;20467;-61
2021/07/30 09:02:55;;;;;;;8.77;2.90;;;;;;;29.17;40.66;100465.25;5084847;28;20147;-62
2021/07/30 09:05:34;;;;;;;4.20;2.25;;;;;;;29.41;40.52;100477.97;5088501;28;22656;-63
2021/07/30 09:08:05;;;;;;;9.20;2.88;;;;;;;29.30;40.52;100477.16;5092510;28;20705;-62
2021/07/30 09:10:42;;;;;;;4.85;2.60;;;;;;;29.13;40.92;100472.19;5086369;28;20131;-63
2021/07/30 09:13:21;;;;;;;5.47;2.25;;;;;;;29.03;41.32;100502.63;5085352;28;20056;-63
2021/07/30 09:16:00;;;;;;;3.53;2.33;;;;;;;28.86;41.32;100507.06;5090763;28;20178;-62
2021/07/30 09:18:34;;;;;;;5.07;2.77;;;;;;;28.75;41.75;100509.06;5083881;28;20076;-63
2021/07/30 09:21:33;;;;;;;7.53;2.55;;;;;;;28.65;42.00;100506.97;5088122;28;20052;-62
2021/07/30 09:24:09;;;;;;;5.38;3.05;;;;;;;28.65;41.89;100502.06;5088236;28;20044;-64
2021/07/30 09:26:46;;;;;;;7.10;2.88;;;;;;;28.54;42.17;100504.06;5085034;28;20127;-63
2021/07/30 09:29:22;;;;;;;5.60;2.42;;;;;;;28.33;42.28;100499.03;5083583;28;20139;-63
2021/07/30 09:31:55;;;;;;;5.72;3.13;;;;;;;28.28;42.48;100506.00;5085652;28;20101;-62
2021/07/30 09:34:28;;;;;;;5.55;3.10;;;;;;;28.29;42.75;100504.75;5084154;28;20055;-62
2021/07/30 09:37:06;;;;;;;7.03;3.22;;;;;;;28.35;42.61;100514.63;5085684;28;20109;-62
2021/07/30 09:39:41;;;;;;;5.03;3.13;;;;;;;28.55;42.62;100520.91;5088307;28;20455;-62
2021/07/30 09:42:16;;;;;;;9.27;3.95;;;;;;;28.76;42.30;100507.84;5081367;28;20044;-61
2021/07/30 09:45:02;;;;;;;5.22;3.80;;;;;;;29.32;42.34;100497.69;5082005;28;20140;-62
2021/07/30 09:47:29;;;;;;;10.70;3.53;;;;;;;29.83;41.02;100516.59;5080618;28;20556;-61
2021/07/30 09:50:03;;;;;;;8.43;3.35;;;;;;;29.86;41.05;100498.50;5085798;28;20423;-62
2021/07/30 09:52:38;;;;;;;6.80;3.17;;;;;;;30.12;40.44;100511.63;5085038;28;20071;-63
2021/07/30 09:55:14;;;;;;;6.18;3.00;;;;;;;30.33;40.06;100504.19;5081297;28;20504;-64
2021/07/30 09:57:42;;;;;;;6.47;3.22;;;;;;;30.78;39.64;100507.31;5078291;28;20068;-62
2021/07/30 10:00:16;;;;;;;6.55;3.47;;;;;;;31.38;39.06;100501.16;5084295;28;20152;-62
2021/07/30 10:02:44;;;;;;;7.20;3.40;;;;;;;31.88;38.20;100505.66;5083559;28;20514;-63
2021/07/30 10:05:16;;;;;;;6.18;3.22;;;;;;;31.85;37.69;100507.28;5083811;28;20048;-63
2021/07/30 10:07:44;;;;;;;6.53;1.88;;;;;;;31.70;37.85;100487.66;5084703;28;20071;-62
2021/07/30 10:10:24;;;;;;;5.50;2.55;;;;;;;31.78;38.05;100504.47;5082015;28;20044;-63
2021/07/30 10:12:54;;;;;;;6.18;2.33;;;;;;;31.66;37.92;100515.72;5073328;28;20085;-63
2021/07/30 10:15:22;;;;;;;5.45;3.35;;;;;;;31.39;37.83;100520.09;5092118;28;20052;-63
2021/07/30 10:17:55;;;;;;;4.45;2.45;;;;;;;31.27;38.09;100520.56;5082379;28;20201;-63
2021/07/30 10:20:25;;;;;;;5.18;2.55;;;;;;;31.07;38.34;100523.16;5080141;28;20126;-63
2021/07/30 10:23:08;;;;;;;5.18;2.47;;;;;;;30.91;38.85;100517.09;5090739;28;20122;-62
2021/07/30 10:25:38;;;;;;;5.10;2.70;;;;;;;30.80;38.75;100524.97;5083408;28;20135;-63
2021/07/30 10:28:33;;;;;;;4.38;2.47;;;;;;;30.60;39.43;100519.72;5083955;28;20556;-62
2021/07/30 10:31:05;;;;;;;4.93;2.75;;;;;;;30.63;39.11;100512.25;5078633;28;20053;-62
2021/07/30 10:33:36;;;;;;;6.20;3.20;;;;;;;30.54;39.30;100537.84;5080324;28;20040;-62
2021/07/30 10:36:12;;;;;;;6.85;4.15;;;;;;;30.31;38.63;100524.75;5080956;28;20127;-62
2021/07/30 10:38:40;;;;;;;7.25;3.60;;;;;;;30.23;39.24;100528.09;5079193;28;20132;-61
2021/07/30 10:41:07;;;;;;;8.75;3.75;;;;;;;30.35;38.81;100542.84;5086626;28;20460;-62
2021/07/30 10:43:49;;;;;;;6.53;3.22;;;;;;;30.70;38.89;100526.63;5087801;28;20072;-62
2021/07/30 10:46:18;;;;;;;7.05;4.28;;;;;;;30.77;38.30;100518.00;5085095;28;20126;-62
2021/07/30 10:48:46;;;;;;;4.75;2.97;;;;;;;30.68;38.31;100509.78;5077493;28;20049;-62
2021/07/30 10:51:23;;;;;;;6.47;3.75;;;;;;;31.08;38.46;100526.91;5086382;28;20132;-62
2021/07/30 10:53:57;;;;;;;7.13;3.90;;;;;;;31.33;37.86;100527.56;5080403;28;20139;-63
2021/07/30 10:56:24;;;;;;;5.85;3.10;;;;;;;31.50;37.18;100536.50;5090829;28;20171;-63
2021/07/30 10:58:53;;;;;;;7.43;3.13;;;;;;;31.71;37.35;100535.50;5086905;28;20082;-63
2021/07/30 11:01:22;;;;;;;10.90;3.20;;;;;;;32.05;36.46;100526.94;5085134;28;20066;-63
2021/07/30 11:03:49;;;;;;;5.20;2.28;;;;;;;32.14;36.36;100537.97;5077394;28;20267;-61
2021/07/30 11:06:17;;;;;;;5.80;2.70;;;;;;;32.50;36.24;100521.09;5083451;28;20424;-63
2021/07/30 11:09:06;;;;;;;4.60;2.53;;;;;;;32.66;36.30;100527.06;5088340;28;20607;-62
2021/07/30 11:11:45;;;;;;;3.10;2.20;;;;;;;32.73;35.77;100524.09;5078949;28;20059;-62
2021/07/30 11:14:14;;;;;;;;;;;;;;;32.84;37.07;100517.34;5083545;28;20151;-62
2021/07/30 11:16:48;;;;;;;5.03;1.75;;;;;;;33.26;35.69;100505.13;5075471;28;19935;-62
2021/07/30 11:19:30;;;;;;;3.00;2.10;;;;;;;32.73;35.97;100503.84;5072900;28;20055;-61
2021/07/30 11:21:58;;;;;;;3.53;1.80;;;;;;;31.81;36.17;100506.50;5080634;28;20127;-61
2021/07/30 11:24:26;;;;;;;3.22;2.17;;;;;;;31.19;37.52;100506.63;5076430;28;20040;-61
2021/07/30 11:26:53;;;;;;;6.10;1.73;;;;;;;31.19;37.39;100509.50;5077682;28;20071;-62
2021/07/30 11:29:28;;;;;;;7.50;2.05;;;;;;;31.71;37.06;100481.47;5074485;28;20127;-62